Patrick, Mississippi
Current Conditions -  °F | °C
As of 6:15 PM on Monday 22 Dec 2014 (Local Time) from KSTF Reporting Station
Haze Haze  
Wind Chill: 54°   Ceiling: 100
Heat Index: 54°   Visibility: 1mi
Dew Point: 54°   Wind: 6mph
Humidity: 100%   Direction: 150°SSE
Pressure: 29.7"   Gusts: NA
Location:  33.4256°N, 88.8438°W
Report Text: KSTF 230015Z AUTO 15005KT 1SM BR OVC001 12/12 A2970 RMK AO2
Loading
Personal Weather Stations






























Interactive Weather Map New forecast layout! Learn more

10-Day Weather Forecast

Advertisements
Track Severe Weather on mobile